Time;durP1;ratioP1;P1;durP2;ratioP2;P2;SDS_P1;SDS_P2;PMS_P1;PMS_P2;Temp;Humidity;BMP_temperature;BMP_pressure;BME280_temperature;BME280_humidity;BME280_pressure;Samples;Min_cycle;Max_cycle;Signal;HPM_P1;HPM_P2
2023/08/08 00:09:33;;;;;;;6.43;3.40;;;15.70;99.30;;;;;;21009568;28;20237;-71
2023/08/08 00:19:35;;;;;;;4.90;3.10;;;15.60;99.70;;;;;;21008561;28;20324;-70
2023/08/08 00:29:37;;;;;;;6.50;3.37;;;15.60;99.90;;;;;;21007824;28;20295;-74
2023/08/08 00:39:42;;;;;;;5.57;3.03;;;15.60;99.90;;;;;;21007381;28;20941;-72
2023/08/08 00:49:46;;;;;;;5.83;3.07;;;15.60;99.90;;;;;;21006414;28;20215;-74
2023/08/08 00:59:48;;;;;;;4.27;2.83;;;15.70;99.90;;;;;;21017491;28;20235;-74
2023/08/08 01:10:07;;;;;;;7.33;3.30;;;;;;;;;;21005190;28;20642;-74
2023/08/08 01:20:10;;;;;;;4.60;2.93;;;15.70;99.90;;;;;;21003949;28;20265;-73
2023/08/08 01:30:12;;;;;;;4.50;2.87;;;15.70;99.90;;;;;;21003279;28;20210;-74
2023/08/08 01:40:16;;;;;;;6.57;2.73;;;15.70;99.90;;;;;;21002765;28;20235;-73
2023/08/08 01:50:18;;;;;;;4.47;3.00;;;15.60;99.90;;;;;;21001568;28;20298;-74
2023/08/08 02:00:20;;;;;;;4.50;3.50;;;15.60;99.90;;;;;;21000730;28;20231;-74
2023/08/08 02:10:22;;;;;;;5.97;2.87;;;15.50;99.90;;;;;;21014658;28;20376;-73
2023/08/08 02:20:24;;;;;;;7.83;3.13;;;15.50;99.90;;;;;;20999118;28;20742;-72
2023/08/08 02:30:25;;;;;;;4.57;2.60;;;15.50;99.90;;;;;;20998319;28;20297;-72
2023/08/08 02:40:27;;;;;;;3.70;2.70;;;15.40;99.90;;;;;;20997761;28;20341;-71
2023/08/08 02:50:29;;;;;;;6.27;3.00;;;15.40;99.90;;;;;;20996737;28;20677;-73
2023/08/08 03:00:30;;;;;;;3.80;2.43;;;15.30;99.90;;;;;;20996363;28;20266;-71
2023/08/08 03:10:32;;;;;;;3.10;2.00;;;15.20;99.90;;;;;;20996215;28;20269;-74
2023/08/08 03:20:34;;;;;;;5.63;1.93;;;15.20;99.90;;;;;;21012039;28;20686;-71
2023/08/08 03:30:37;;;;;;;1.97;1.83;;;15.20;99.90;;;;;;20994820;28;20569;-74
2023/08/08 03:40:39;;;;;;;2.93;2.00;;;15.30;99.90;;;;;;20994950;28;20348;-75
2023/08/08 03:50:41;;;;;;;3.17;1.80;;;15.40;99.50;;;;;;20994339;28;20231;-68
2023/08/08 04:00:46;;;;;;;2.30;1.70;;;15.50;99.10;;;;;;21004987;28;20238;-66
2023/08/08 04:10:48;;;;;;;2.30;1.83;;;15.50;98.80;;;;;;20993548;28;20292;-66
2023/08/08 04:20:49;;;;;;;3.67;1.70;;;15.40;98.40;;;;;;20992976;28;20694;-70
2023/08/08 04:30:51;;;;;;;5.13;1.63;;;15.40;98.60;;;;;;21018358;28;20654;-72
2023/08/08 04:40:53;;;;;;;2.63;1.77;;;15.40;98.10;;;;;;21007149;28;20293;-69
2023/08/08 04:50:55;;;;;;;2.07;1.60;;;15.40;97.80;;;;;;21006185;28;20294;-74
2023/08/08 05:00:56;;;;;;;2.40;1.83;;;15.50;97.60;;;;;;21005094;28;20233;-73
2023/08/08 05:10:58;;;;;;;6.07;2.13;;;15.60;98.00;;;;;;21016288;28;20242;-74
2023/08/08 05:21:00;;;;;;;2.23;1.70;;;15.90;97.40;;;;;;21003897;28;20262;-64
2023/08/08 05:31:02;;;;;;;8.97;2.10;;;16.00;97.40;;;;;;21002947;28;20290;-65
2023/08/08 05:41:04;;;;;;;2.80;1.70;;;16.30;97.50;;;;;;21023822;28;20254;-66
2023/08/08 05:51:06;;;;;;;2.60;1.43;;;;;;;;;;21000576;28;20653;-65
2023/08/08 06:01:11;;;;;;;2.20;1.53;;;;;;;;;;20998857;28;20324;-66
2023/08/08 06:11:13;;;;;;;2.37;1.57;;;;;;;;;;21003307;28;20235;-67
2023/08/08 06:21:15;;;;;;;4.90;1.40;;;;;;;;;;21005990;28;20666;-64
2023/08/08 06:31:18;;;;;;;3.43;1.70;;;;;;;;;;20997849;28;20212;-66
2023/08/08 06:41:20;;;;;;;3.40;1.50;;;16.90;95.20;;;;;;21006227;28;20278;-71
2023/08/08 06:51:22;;;;;;;3.80;1.50;;;17.10;95.00;;;;;;21009445;28;20297;-69
2023/08/08 07:01:23;;;;;;;2.23;1.60;;;17.30;94.90;;;;;;20996037;28;20237;-64
2023/08/08 07:11:25;;;;;;;2.63;1.80;;;17.50;94.60;;;;;;20995292;28;20292;-65
2023/08/08 07:21:27;;;;;;;3.37;1.70;;;17.60;94.00;;;;;;20994879;28;20429;-68
2023/08/08 07:31:29;;;;;;;1.83;1.50;;;17.80;93.60;;;;;;20994656;28;20243;-67
2023/08/08 07:41:31;;;;;;;1.70;1.50;;;18.10;93.20;;;;;;20994321;28;20591;-66
2023/08/08 07:51:32;;;;;;;6.90;1.40;;;17.90;92.20;;;;;;21011720;28;20561;-64
2023/08/08 08:01:34;;;;;;;1.80;1.20;;;18.10;91.10;;;;;;20997457;28;20246;-66
2023/08/08 08:11:36;;;;;;;1.60;1.30;;;18.30;89.20;;;;;;21008457;28;20235;-66
2023/08/08 08:21:38;;;;;;;2.27;1.30;;;18.50;86.90;;;;;;21008505;28;20238;-68
2023/08/08 08:31:39;;;;;;;2.00;1.33;;;18.80;82.80;;;;;;21007312;28;20289;-64
2023/08/08 08:41:43;;;;;;;3.90;1.60;;;19.00;78.80;;;;;;21006477;28;20241;-66
2023/08/08 08:51:44;;;;;;;2.77;1.50;;;19.20;77.40;;;;;;21006300;28;20234;-68
2023/08/08 09:01:46;;;;;;;3.03;1.10;;;19.20;74.60;;;;;;21016758;28;20234;-65
2023/08/08 09:11:50;;;;;;;9.27;5.33;;;19.20;70.10;;;;;;21004298;28;20239;-70
2023/08/08 09:21:52;;;;;;;2.63;1.50;;;19.40;68.60;;;;;;21003402;28;20242;-65
2023/08/08 09:31:54;;;;;;;6.20;1.50;;;19.70;66.10;;;;;;21002879;28;20230;-63
2023/08/08 09:41:56;;;;;;;2.77;1.40;;;19.90;65.00;;;;;;21002173;28;20238;-63
2023/08/08 09:51:58;;;;;;;1.37;1.20;;;20.00;62.80;;;;;;21001781;28;20203;-64
2023/08/08 10:02:01;;;;;;;2.03;1.40;;;20.10;60.20;;;;;;21000583;28;20269;-67
2023/08/08 10:12:06;;;;;;;3.50;1.60;;;20.00;58.20;;;;;;21010557;28;20234;-65
2023/08/08 10:22:09;;;;;;;1.30;1.20;;;19.90;58.30;;;;;;20999265;28;20257;-66
2023/08/08 10:32:21;;;;;;;2.87;1.30;;;20.10;57.80;;;;;;20997024;28;20211;-66
2023/08/08 10:42:24;;;;;;;1.20;1.10;;;20.40;56.50;;;;;;20996532;28;20257;-66
2023/08/08 10:52:26;;;;;;;2.70;1.30;;;20.40;56.80;;;;;;20996669;28;20290;-64
2023/08/08 11:02:28;;;;;;;3.70;1.50;;;20.60;57.00;;;;;;20996136;28;20241;-71
2023/08/08 11:12:30;;;;;;;2.10;1.60;;;20.70;57.50;;;;;;20995526;28;20231;-69
2023/08/08 11:22:31;;;;;;;2.67;1.40;;;20.70;56.70;;;;;;21027005;28;20690;-71
2023/08/08 11:32:33;;;;;;;3.63;1.70;;;20.90;56.40;;;;;;21035343;28;20238;-66
2023/08/08 11:42:36;;;;;;;3.37;1.37;;;21.00;56.30;;;;;;21040472;28;20235;-63
2023/08/08 11:52:42;;;;;;;3.17;1.40;;;21.20;56.20;;;;;;21049350;28;20202;-61
2023/08/08 12:02:44;;;;;;;3.33;1.40;;;21.10;55.50;;;;;;21044845;28;20240;-61
2023/08/08 12:12:51;;;;;;;3.13;1.50;;;21.30;55.20;;;;;;21044672;28;20239;-62
2023/08/08 12:22:53;;;;;;;3.47;1.60;;;21.40;55.60;;;;;;21048356;28;20257;-62
2023/08/08 12:32:55;;;;;;;3.03;1.70;;;21.40;56.00;;;;;;21038629;28;20261;-61
2023/08/08 12:42:56;;;;;;;2.13;1.60;;;21.30;55.70;;;;;;21025241;28;20714;-62
2023/08/08 12:52:58;;;;;;;2.93;1.50;;;21.40;56.10;;;;;;21005277;28;20559;-63
2023/08/08 13:03:00;;;;;;;3.43;1.60;;;21.50;55.40;;;;;;21004693;28;20241;-66
2023/08/08 13:13:04;;;;;;;3.43;1.60;;;21.50;55.10;;;;;;21004219;28;20235;-66
2023/08/08 13:23:05;;;;;;;3.67;1.50;;;21.40;54.00;;;;;;21003642;28;20660;-64
2023/08/08 13:33:07;;;;;;;2.33;1.70;;;21.50;54.10;;;;;;21003044;28;20286;-63
2023/08/08 13:43:09;;;;;;;2.07;1.50;;;21.50;54.10;;;;;;21002142;28;20245;-64
2023/08/08 13:53:11;;;;;;;4.87;1.97;;;21.80;54.00;;;;;;21001399;28;20215;-63
2023/08/08 14:03:13;;;;;;;4.73;1.80;;;21.90;53.50;;;;;;20999707;28;20318;-66
2023/08/08 14:13:16;;;;;;;2.97;1.70;;;22.20;53.20;;;;;;20999564;28;20314;-67
2023/08/08 14:23:18;;;;;;;2.63;1.47;;;22.30;52.60;;;;;;20998976;28;20321;-68
2023/08/08 14:33:20;;;;;;;2.37;1.30;;;22.40;50.40;;;;;;20997715;28;20643;-69
2023/08/08 14:43:23;;;;;;;2.40;1.53;;;22.40;50.00;;;;;;20997011;28;20235;-66
2023/08/08 14:53:25;;;;;;;3.90;1.40;;;22.20;50.20;;;;;;21012546;28;20268;-71
2023/08/08 15:03:26;;;;;;;3.37;1.70;;;21.90;49.90;;;;;;21079481;28;20238;-67
2023/08/08 15:13:28;;;;;;;2.30;1.37;;;21.90;50.00;;;;;;21077813;28;20754;-73
2023/08/08 15:23:31;;;;;;;3.20;1.50;;;21.70;50.50;;;;;;21078562;28;20647;-68
2023/08/08 15:33:32;;;;;;;2.13;1.30;;;21.50;51.20;;;;;;21077815;28;20206;-67
2023/08/08 15:43:34;;;;;;;3.13;1.70;;;21.40;51.60;;;;;;21059825;28;20701;-67
2023/08/08 15:53:36;;;;;;;7.53;1.53;;;21.60;51.90;;;;;;21077921;28;20206;-73
2023/08/08 16:03:38;;;;;;;3.83;1.40;;;21.60;52.40;;;;;;21076835;28;20266;-68
2023/08/08 16:13:40;;;;;;;2.83;1.60;;;21.20;52.80;;;;;;21076923;28;20304;-73
2023/08/08 16:23:42;;;;;;;5.73;2.00;;;20.90;54.00;;;;;;21059898;28;20231;-61
2023/08/08 16:33:43;;;;;;;3.07;1.53;;;20.80;54.70;;;;;;21021409;28;20226;-61
2023/08/08 16:43:52;;;;;;;1.60;1.30;;;20.80;55.20;;;;;;21007708;28;20231;-68
2023/08/08 16:53:54;;;;;;;3.40;1.40;;;20.20;58.80;;;;;;21006570;28;20290;-68
2023/08/08 17:03:56;;;;;;;4.07;1.43;;;20.20;59.30;;;;;;21043434;28;20653;-72
2023/08/08 17:13:57;;;;;;;2.73;1.70;;;20.20;59.70;;;;;;21088743;28;20321;-67
2023/08/08 17:23:59;;;;;;;4.47;1.60;;;20.20;60.50;;;;;;21088376;28;20234;-62
2023/08/08 17:34:05;;;;;;;2.13;1.30;;;20.30;61.00;;;;;;21086954;28;20222;-77
2023/08/08 17:44:07;;;;;;;4.00;1.37;;;20.20;60.50;;;;;;21085645;28;20237;-69
2023/08/08 17:54:11;;;;;;;3.37;1.50;;;20.30;61.30;;;;;;21085689;28;20234;-66
2023/08/08 18:04:13;;;;;;;5.83;1.67;;;20.30;61.60;;;;;;21083721;28;20662;-69
2023/08/08 18:14:15;;;;;;;2.83;1.57;;;20.20;61.80;;;;;;20999909;28;20714;-62
2023/08/08 18:24:16;;;;;;;3.43;1.50;;;20.10;62.30;;;;;;20999059;28;20262;-63
2023/08/08 18:34:18;;;;;;;5.67;1.60;;;20.00;62.70;;;;;;20998101;28;20253;-63
2023/08/08 18:44:20;;;;;;;4.70;1.80;;;19.90;63.30;;;;;;20997467;28;20234;-64
2023/08/08 18:54:21;;;;;;;4.50;1.67;;;19.90;63.70;;;;;;20996127;28;20238;-64
2023/08/08 19:04:23;;;;;;;2.53;1.70;;;19.80;64.10;;;;;;20997504;28;20233;-62
2023/08/08 19:14:26;;;;;;;4.47;1.80;;;19.80;64.70;;;;;;21079596;28;20220;-62
2023/08/08 19:24:28;;;;;;;5.20;2.00;;;19.70;65.30;;;;;;21078933;28;20281;-61
2023/08/08 19:34:30;;;;;;;3.03;1.77;;;19.70;66.00;;;;;;21044220;28;20751;-66
2023/08/08 19:44:32;;;;;;;3.63;1.70;;;19.60;66.60;;;;;;21029818;28;20235;-61
2023/08/08 19:54:33;;;;;;;4.63;1.80;;;19.60;67.20;;;;;;21016551;28;20301;-61
2023/08/08 20:04:35;;;;;;;4.27;2.00;;;19.50;67.80;;;;;;21046894;28;20647;-64
2023/08/08 20:14:37;;;;;;;3.70;1.83;;;19.40;68.70;;;;;;21046534;28;20297;-67
2023/08/08 20:24:39;;;;;;;5.10;2.43;;;19.40;69.30;;;;;;21045689;28;20712;-63
2023/08/08 20:34:41;;;;;;;16.27;2.33;;;19.40;70.00;;;;;;21044359;28;20673;-63
2023/08/08 20:44:42;;;;;;;4.00;1.87;;;19.40;70.60;;;;;;21045410;28;20329;-63
2023/08/08 20:54:44;;;;;;;4.20;1.80;;;19.30;71.10;;;;;;21043992;28;20211;-64
2023/08/08 21:04:46;;;;;;;5.30;2.13;;;19.40;71.90;;;;;;21063487;28;20230;-62
2023/08/08 21:14:48;;;;;;;4.40;2.13;;;19.20;72.30;;;;;;21040212;28;20294;-64
2023/08/08 21:24:49;;;;;;;3.60;2.00;;;19.20;72.90;;;;;;21037301;28;20745;-66
2023/08/08 21:34:52;;;;;;;4.97;1.77;;;19.10;73.50;;;;;;21036414;28;20207;-62
2023/08/08 21:44:54;;;;;;;6.43;2.10;;;19.10;74.10;;;;;;21032504;28;20654;-66
2023/08/08 21:54:55;;;;;;;2.37;1.80;;;19.10;74.90;;;;;;21040603;28;20214;-66
2023/08/08 22:04:57;;;;;;;4.83;2.30;;;19.10;75.50;;;;;;21043231;28;20238;-68
2023/08/08 22:14:59;;;;;;;4.17;2.10;;;19.10;76.00;;;;;;21034813;28;20681;-64
2023/08/08 22:25:01;;;;;;;2.73;1.90;;;19.10;76.60;;;;;;21039432;28;20218;-62
2023/08/08 22:35:03;;;;;;;4.13;2.03;;;19.00;77.20;;;;;;21053690;28;20263;-64
2023/08/08 22:45:06;;;;;;;4.77;2.30;;;19.10;78.10;;;;;;21001520;28;20246;-63
2023/08/08 22:55:08;;;;;;;5.67;2.10;;;19.00;79.50;;;;;;20997506;28;20290;-63
2023/08/08 23:05:10;;;;;;;6.40;2.30;;;18.80;81.20;;;;;;21045386;28;20232;-63
2023/08/08 23:15:12;;;;;;;5.77;2.27;;;18.60;84.90;;;;;;21079753;28;20564;-63
2023/08/08 23:25:13;;;;;;;4.87;2.30;;;18.30;88.60;;;;;;21079357;28;20668;-62
2023/08/08 23:35:16;;;;;;;8.03;2.97;;;18.10;91.20;;;;;;21078396;28;20287;-62
2023/08/08 23:45:18;;;;;;;4.40;2.80;;;18.00;92.80;;;;;;21058436;28;20211;-61
2023/08/08 23:55:20;;;;;;;4.17;2.57;;;17.90;94.20;;;;;;21077734;28;20672;-63
